Time;durP1;ratioP1;P1;durP2;ratioP2;P2;SDS_P1;SDS_P2;PMS_P1;PMS_P2;Temp;Humidity;BMP_temperature;BMP_pressure;BME280_temperature;BME280_humidity;BME280_pressure;Samples;Min_cycle;Max_cycle;Signal;HPM_P1;HPM_P2
2022/03/31 00:04:35;;;;;;;11.80;10.52;;;;;;;3.02;100.00;96900.38;10361762;28;20498;-57
2022/03/31 00:09:39;;;;;;;11.10;9.43;;;;;;;3.03;100.00;96902.03;10358083;28;20471;-59
2022/03/31 00:14:42;;;;;;;10.43;9.32;;;;;;;3.07;100.00;96903.44;10361478;28;20836;-58
2022/03/31 00:19:45;;;;;;;9.98;8.18;;;;;;;3.08;100.00;96902.44;10360268;28;20402;-57
2022/03/31 00:24:55;;;;;;;9.63;8.25;;;;;;;3.12;100.00;96894.16;10361771;28;20061;-59
2022/03/31 00:29:58;;;;;;;9.30;8.27;;;;;;;3.14;100.00;96887.69;10361366;28;20073;-57
2022/03/31 00:35:01;;;;;;;9.60;8.60;;;;;;;3.17;100.00;96894.53;10362439;28;20466;-54
2022/03/31 00:40:08;;;;;;;10.73;8.05;;;;;;;3.17;100.00;96886.53;10359804;28;20042;-55
2022/03/31 00:45:15;;;;;;;8.70;7.55;;;;;;;3.21;100.00;96885.25;10359039;28;20124;-58
2022/03/31 00:50:18;;;;;;;9.60;7.22;;;;;;;3.22;100.00;96878.94;10360298;28;20054;-61
2022/03/31 00:55:23;;;;;;;8.60;7.05;;;;;;;3.22;100.00;96874.44;10360644;28;20073;-55
2022/03/31 01:00:27;;;;;;;10.73;7.38;;;;;;;3.21;100.00;96872.78;10362355;28;20054;-58
2022/03/31 01:05:31;;;;;;;8.52;7.38;;;;;;;3.21;100.00;96869.28;10367537;28;20054;-56
2022/03/31 01:10:37;;;;;;;9.75;7.80;;;;;;;3.21;100.00;96861.31;10369077;28;20053;-59
2022/03/31 01:15:40;;;;;;;9.60;8.65;;;;;;;3.22;100.00;96860.31;10365444;28;20124;-58
2022/03/31 01:20:45;;;;;;;9.30;7.80;;;;;;;3.23;100.00;96854.84;10367845;28;20046;-57
2022/03/31 01:25:50;;;;;;;9.18;8.13;;;;;;;3.20;100.00;96852.47;10367786;28;20060;-57
2022/03/31 01:30:55;;;;;;;10.45;8.52;;;;;;;3.22;100.00;96847.00;10366392;28;20049;-59
2022/03/31 01:35:59;;;;;;;9.95;9.02;;;;;;;3.21;100.00;96846.16;10367990;28;20100;-59
2022/03/31 01:41:04;;;;;;;9.40;8.38;;;;;;;3.19;100.00;96842.00;10368184;28;20038;-55
2022/03/31 01:46:08;;;;;;;9.20;8.30;;;;;;;3.19;100.00;96834.00;10365262;28;20451;-59
2022/03/31 01:51:12;;;;;;;10.05;8.40;;;;;;;3.18;100.00;96833.16;10367628;28;20048;-55
2022/03/31 01:56:16;;;;;;;9.32;8.10;;;;;;;3.17;100.00;96833.31;10365625;28;20140;-59
2022/03/31 02:01:20;;;;;;;10.95;9.05;;;;;;;3.16;100.00;96831.66;10367840;28;20057;-58
2022/03/31 02:06:23;;;;;;;11.02;9.40;;;;;;;3.12;100.00;96830.31;10366955;28;20054;-54
2022/03/31 02:11:29;;;;;;;9.25;8.35;;;;;;;3.06;100.00;96832.56;10366005;28;20521;-59
2022/03/31 02:16:32;;;;;;;8.00;7.20;;;;;;;3.03;100.00;96829.38;10366908;28;20084;-57
2022/03/31 02:21:36;;;;;;;8.20;7.05;;;;;;;3.02;100.00;96825.88;10363729;28;20049;-60
2022/03/31 02:26:41;;;;;;;7.32;6.47;;;;;;;3.00;100.00;96817.22;10366574;28;20128;-57
2022/03/31 02:31:46;;;;;;;6.93;6.20;;;;;;;2.97;100.00;96820.19;10366782;28;20053;-56
2022/03/31 02:36:49;;;;;;;6.30;5.70;;;;;;;2.96;100.00;96813.19;10365911;28;20066;-58
2022/03/31 02:41:54;;;;;;;6.65;6.05;;;;;;;2.92;100.00;96812.69;10364980;28;20042;-59
2022/03/31 02:46:57;;;;;;;7.07;5.65;;;;;;;2.85;100.00;96808.13;10364898;28;20052;-56
2022/03/31 02:52:02;;;;;;;6.28;5.60;;;;;;;2.84;100.00;96795.81;10363797;28;20048;-57
2022/03/31 02:57:07;;;;;;;6.03;5.43;;;;;;;2.83;100.00;96794.13;10363224;28;20048;-57
2022/03/31 03:02:11;;;;;;;7.10;5.85;;;;;;;2.80;100.00;96792.63;10362636;28;20096;-54
2022/03/31 03:07:15;;;;;;;6.40;5.80;;;;;;;2.77;100.00;96790.25;10363767;28;20046;-56
2022/03/31 03:12:19;;;;;;;7.30;6.07;;;;;;;2.76;100.00;96784.09;10363789;28;20077;-57
2022/03/31 03:17:23;;;;;;;8.27;6.18;;;;;;;2.76;100.00;96770.78;10363053;28;20058;-54
2022/03/31 03:22:26;;;;;;;7.03;6.30;;;;;;;2.77;100.00;96772.47;10362518;28;20050;-58
2022/03/31 03:27:30;;;;;;;7.20;6.50;;;;;;;2.79;100.00;96769.69;10361876;28;20072;-59
2022/03/31 03:32:36;;;;;;;8.75;7.00;;;;;;;2.77;100.00;96766.31;10361331;28;20046;-55
2022/03/31 03:37:40;;;;;;;7.18;6.13;;;;;;;2.78;100.00;96775.97;10363987;28;20453;-55
2022/03/31 03:42:45;;;;;;;6.55;5.85;;;;;;;2.76;100.00;96768.13;10364599;28;20041;-58
2022/03/31 03:47:49;;;;;;;9.15;6.28;;;;;;;2.77;100.00;96769.81;10363806;28;20048;-57
2022/03/31 03:52:52;;;;;;;6.35;5.75;;;;;;;2.74;100.00;96762.16;10362998;28;20458;-58
2022/03/31 03:57:56;;;;;;;6.60;5.47;;;;;;;2.73;100.00;96754.31;10360890;28;20100;-56
2022/03/31 04:02:59;;;;;;;6.38;5.07;;;;;;;2.71;100.00;96754.47;10363878;28;20439;-53
2022/03/31 04:08:03;;;;;;;7.10;5.78;;;;;;;2.71;100.00;96749.16;10362844;28;20136;-59
2022/03/31 04:13:08;;;;;;;6.38;5.53;;;;;;;2.76;100.00;96752.19;10362626;28;20092;-57
2022/03/31 04:18:11;;;;;;;6.10;5.38;;;;;;;2.73;100.00;96736.56;10362667;28;20124;-56
2022/03/31 04:23:15;;;;;;;7.22;5.13;;;;;;;2.77;100.00;96729.09;10364269;28;20561;-60
2022/03/31 04:28:20;;;;;;;7.55;5.70;;;;;;;2.78;100.00;96734.25;10360867;28;20764;-54
2022/03/31 04:33:24;;;;;;;6.93;5.78;;;;;;;2.76;100.00;96740.72;10362953;28;20529;-59
2022/03/31 04:38:27;;;;;;;7.50;6.03;;;;;;;2.75;100.00;96741.72;10370398;28;20056;-59
2022/03/31 04:43:32;;;;;;;6.97;6.20;;;;;;;2.70;100.00;96736.84;10370364;28;20041;-55
2022/03/31 04:48:35;;;;;;;7.78;6.40;;;;;;;2.70;100.00;96742.16;10370933;28;20120;-54
2022/03/31 04:53:39;;;;;;;7.13;6.10;;;;;;;2.69;100.00;96743.16;10370770;28;20808;-58
2022/03/31 04:58:44;;;;;;;6.72;6.03;;;;;;;2.64;100.00;96733.97;10372395;28;20056;-55
2022/03/31 05:03:48;;;;;;;6.90;6.20;;;;;;;2.64;100.00;96729.50;10368589;28;20111;-57
2022/03/31 05:08:52;;;;;;;5.60;5.10;;;;;;;2.59;100.00;96726.47;10371095;28;20049;-58
2022/03/31 05:13:57;;;;;;;9.07;5.72;;;;;;;2.59;100.00;96734.44;10372709;28;20069;-57
2022/03/31 05:19:00;;;;;;;5.70;5.10;;;;;;;2.47;100.00;96721.38;10370414;28;20100;-57
2022/03/31 05:24:03;;;;;;;6.07;4.43;;;;;;;2.43;100.00;96719.19;10371505;28;20058;-56
2022/03/31 05:29:08;;;;;;;4.90;4.40;;;;;;;2.41;100.00;96727.28;10388139;28;20487;-58
2022/03/31 05:34:11;;;;;;;5.80;4.50;;;;;;;2.36;100.00;96713.63;10381992;28;20060;-58
2022/03/31 05:39:15;;;;;;;4.80;4.30;;;;;;;2.35;100.00;96717.28;10370984;28;20489;-54
2022/03/31 05:44:19;;;;;;;6.93;4.90;;;;;;;2.37;100.00;96714.44;10403128;28;20521;-59
2022/03/31 05:49:23;;;;;;;7.95;6.10;;;;;;;2.35;100.00;96716.44;10404880;28;20053;-56
2022/03/31 05:54:28;;;;;;;8.38;5.72;;;;;;;2.36;100.00;96728.72;10392329;28;20443;-62
2022/03/31 05:59:32;;;;;;;7.30;5.13;;;;;;;2.33;100.00;96732.53;10365099;28;20080;-56
2022/03/31 06:04:36;;;;;;;5.85;5.25;;;;;;;2.36;100.00;96728.72;10363615;28;20487;-57
2022/03/31 06:09:47;;;;;;;6.07;5.55;;;;;;;2.35;100.00;96735.88;10366280;28;20046;-57
2022/03/31 06:14:55;;;;;;;7.30;5.90;;;;;;;2.33;100.00;96737.84;10364897;28;20069;-55
2022/03/31 06:20:08;;;;;;;7.68;6.15;;;;;;;2.36;100.00;96742.88;10364981;28;20068;-57
2022/03/31 06:25:14;;;;;;;9.43;6.35;;;;;;;2.32;100.00;96733.50;10364470;28;20065;-57
2022/03/31 06:30:22;;;;;;;7.13;5.90;;;;;;;2.31;100.00;96731.84;10364712;28;20081;-58
2022/03/31 06:35:26;;;;;;;7.20;6.50;;;;;;;2.32;100.00;96728.19;10364482;28;20816;-58
2022/03/31 06:40:31;;;;;;;8.77;6.70;;;;;;;2.31;100.00;96722.06;10359631;28;20130;-57
2022/03/31 06:45:35;;;;;;;7.85;6.70;;;;;;;2.29;100.00;96715.25;10363588;28;20077;-58
2022/03/31 06:50:40;;;;;;;9.40;7.65;;;;;;;2.28;100.00;96726.84;10362193;28;20046;-55
2022/03/31 06:55:43;;;;;;;9.38;8.25;;;;;;;2.31;100.00;96732.69;10363764;28;20130;-55
2022/03/31 07:00:47;;;;;;;10.27;8.73;;;;;;;2.30;100.00;96744.31;10363359;28;20050;-58
2022/03/31 07:05:51;;;;;;;12.38;9.43;;;;;;;2.27;100.00;96747.25;10361939;28;20128;-57
2022/03/31 07:10:54;;;;;;;12.77;11.43;;;;;;;2.29;100.00;96747.13;10359645;28;20045;-56
2022/03/31 07:15:58;;;;;;;14.30;11.82;;;;;;;2.23;100.00;96747.72;10362580;28;20101;-56
2022/03/31 07:21:02;;;;;;;14.07;12.38;;;;;;;2.22;100.00;96748.69;10365215;28;20061;-58
2022/03/31 07:26:06;;;;;;;17.65;13.68;;;;;;;2.22;100.00;96756.66;10364914;28;20053;-55
2022/03/31 07:31:36;;;;;;;14.73;12.25;;;;;;;2.14;100.00;96744.97;10367009;28;20825;-54
2022/03/31 07:36:39;;;;;;;15.60;13.13;;;;;;;2.12;100.00;96754.91;10363540;28;20128;-56
2022/03/31 07:41:42;;;;;;;15.55;12.65;;;;;;;2.13;100.00;96747.75;10357798;28;20038;-55
2022/03/31 07:46:47;;;;;;;16.25;12.52;;;;;;;2.14;100.00;96752.94;10361372;28;20562;-53
2022/03/31 07:51:50;;;;;;;13.27;11.68;;;;;;;2.13;100.00;96745.97;10363677;28;20038;-56
2022/03/31 07:56:53;;;;;;;14.35;12.13;;;;;;;2.10;100.00;96735.63;10364948;28;20506;-52
2022/03/31 08:01:58;;;;;;;12.45;11.07;;;;;;;2.08;100.00;96736.75;10376391;28;20163;-56
2022/03/31 08:07:01;;;;;;;11.80;10.10;;;;;;;2.08;100.00;96732.28;10362442;28;20629;-58
2022/03/31 08:12:07;;;;;;;11.98;10.02;;;;;;;2.03;100.00;96728.41;10359780;28;20516;-55
2022/03/31 08:17:12;;;;;;;13.60;10.00;;;;;;;2.08;100.00;96737.59;10372890;28;20068;-57
2022/03/31 08:22:17;;;;;;;11.40;10.05;;;;;;;2.09;100.00;96739.25;10359370;28;20148;-60
2022/03/31 08:27:20;;;;;;;12.82;11.07;;;;;;;2.10;100.00;96732.16;10360885;28;20786;-60
2022/03/31 08:32:25;;;;;;;13.05;11.63;;;;;;;2.13;100.00;96729.16;10360350;28;20056;-58
2022/03/31 08:37:28;;;;;;;14.30;12.80;;;;;;;2.13;100.00;96726.50;10361085;28;20116;-56
2022/03/31 08:42:31;;;;;;;12.63;11.38;;;;;;;2.08;100.00;96740.25;10359443;28;20068;-56
2022/03/31 08:47:36;;;;;;;14.02;11.75;;;;;;;2.04;100.00;96725.59;10361256;28;20105;-59
2022/03/31 08:52:53;;;;;;;14.20;12.55;;;;;;;2.08;100.00;96737.59;10358841;28;20124;-55
2022/03/31 08:57:56;;;;;;;13.85;12.45;;;;;;;2.13;100.00;96727.34;10360617;28;20061;-53
2022/03/31 09:03:03;;;;;;;16.70;14.70;;;;;;;2.17;100.00;96724.41;10360499;28;20084;-60
2022/03/31 09:08:09;;;;;;;18.20;15.63;;;;;;;2.22;100.00;96728.28;10360226;28;20045;-56
2022/03/31 09:13:22;;;;;;;13.70;12.30;;;;;;;2.17;100.00;96722.56;10360671;28;20414;-59
2022/03/31 09:18:29;;;;;;;14.88;12.35;;;;;;;2.14;100.00;96731.69;10354023;28;20054;-60
2022/03/31 09:23:39;;;;;;;13.95;12.25;;;;;;;2.11;100.00;96737.28;10364865;28;20071;-60
2022/03/31 09:28:44;;;;;;;16.83;13.35;;;;;;;2.12;100.00;96738.97;10367902;28;20541;-56
2022/03/31 09:33:55;;;;;;;13.80;12.35;;;;;;;2.16;100.00;96734.19;10366393;28;20068;-58
2022/03/31 09:39:00;;;;;;;12.90;11.50;;;;;;;2.15;100.00;96733.38;10367381;28;20408;-59
2022/03/31 09:44:06;;;;;;;13.88;12.45;;;;;;;2.19;100.00;96741.88;10367807;28;20120;-59
2022/03/31 09:49:19;;;;;;;14.07;11.00;;;;;;;2.20;100.00;96730.25;10364558;28;20432;-58
2022/03/31 09:54:25;;;;;;;12.93;11.02;;;;;;;2.23;100.00;96729.09;10363468;28;20088;-56
2022/03/31 09:59:31;;;;;;;13.30;11.55;;;;;;;2.30;100.00;96725.69;10366574;28;20057;-56
2022/03/31 10:04:36;;;;;;;13.43;11.27;;;;;;;2.29;100.00;96726.69;10364611;28;20061;-55
2022/03/31 10:09:42;;;;;;;13.20;11.80;;;;;;;2.31;100.00;96731.84;10380608;28;20462;-57
2022/03/31 10:14:52;;;;;;;12.90;11.50;;;;;;;2.37;100.00;96720.63;10365829;28;20044;-58
2022/03/31 10:20:07;;;;;;;11.43;10.25;;;;;;;2.45;100.00;96717.22;10366098;28;20038;-54
2022/03/31 10:25:14;;;;;;;11.30;10.20;;;;;;;2.54;100.00;96705.66;10362950;28;20045;-52
2022/03/31 10:30:21;;;;;;;10.98;9.85;;;;;;;2.61;100.00;96690.75;10379571;28;20050;-53
2022/03/31 10:35:30;;;;;;;10.85;9.75;;;;;;;2.69;100.00;96691.81;10363200;28;20137;-56
2022/03/31 10:40:38;;;;;;;10.60;9.50;;;;;;;2.81;100.00;96689.72;10366831;28;20061;-59
2022/03/31 10:45:43;;;;;;;10.68;9.57;;;;;;;2.92;100.00;96684.16;10371918;28;20383;-56
2022/03/31 10:51:01;;;;;;;11.00;9.82;;;;;;;2.93;100.00;96677.84;10372478;28;20486;-54
2022/03/31 10:56:17;;;;;;;10.50;9.50;;;;;;;3.02;100.00;96676.91;10362364;28;20041;-55
2022/03/31 11:01:22;;;;;;;9.63;8.65;;;;;;;3.03;100.00;96659.13;10364852;28;20140;-55
2022/03/31 11:06:27;;;;;;;9.88;8.88;;;;;;;3.12;100.00;96663.50;10365208;28;20089;-57
2022/03/31 11:11:34;;;;;;;9.95;8.95;;;;;;;3.19;100.00;96666.38;10362739;28;20070;-53
2022/03/31 11:16:38;;;;;;;9.52;8.63;;;;;;;3.17;100.00;96666.53;10364829;28;20108;-57
2022/03/31 11:21:44;;;;;;;9.25;8.25;;;;;;;3.21;100.00;96664.38;10365056;28;20457;-59
2022/03/31 11:26:48;;;;;;;9.27;8.15;;;;;;;3.24;100.00;96659.56;10364193;28;20129;-56
2022/03/31 11:31:53;;;;;;;8.82;7.90;;;;;;;3.28;100.00;96662.75;10359598;28;20479;-57
2022/03/31 11:37:01;;;;;;;9.00;8.13;;;;;;;3.22;100.00;96661.56;10367454;28;20050;-61
2022/03/31 11:42:08;;;;;;;10.75;8.90;;;;;;;3.25;100.00;96655.06;10366267;28;20045;-60
2022/03/31 11:47:17;;;;;;;11.98;10.80;;;;;;;3.22;100.00;96648.25;10360599;28;20609;-60
2022/03/31 11:52:29;;;;;;;11.90;10.68;;;;;;;3.17;100.00;96637.28;10364312;28;20516;-61
2022/03/31 11:57:34;;;;;;;13.18;11.98;;;;;;;3.22;100.00;96644.78;10363946;28;20113;-59
2022/03/31 12:02:37;;;;;;;13.30;12.10;;;;;;;3.25;100.00;96633.78;10360041;28;20135;-58
2022/03/31 12:07:42;;;;;;;12.18;10.98;;;;;;;3.33;100.00;96635.66;10359852;28;20042;-57
2022/03/31 12:12:50;;;;;;;11.18;10.00;;;;;;;3.33;100.00;96628.53;10362966;28;20410;-59
2022/03/31 12:18:02;;;;;;;13.57;12.15;;;;;;;3.35;100.00;96618.53;10363776;28;20284;-58
2022/03/31 12:23:20;;;;;;;11.52;10.50;;;;;;;3.41;100.00;96621.56;10364101;28;20124;-59
2022/03/31 12:28:24;;;;;;;12.98;11.68;;;;;;;3.44;100.00;96621.25;10363642;28;20073;-60
2022/03/31 12:33:30;;;;;;;11.07;9.98;;;;;;;3.39;100.00;96603.09;10358020;28;20057;-54
2022/03/31 12:38:41;;;;;;;10.75;9.68;;;;;;;3.52;100.00;96599.97;10376401;28;20061;-60
2022/03/31 12:43:56;;;;;;;10.60;9.60;;;;;;;3.59;100.00;96614.28;10364719;28;20385;-62
2022/03/31 12:49:04;;;;;;;11.35;10.27;;;;;;;3.54;100.00;96611.28;10364918;28;20104;-60
2022/03/31 12:54:23;;;;;;;11.57;10.48;;;;;;;3.58;100.00;96617.97;10364169;28;20045;-60
2022/03/31 12:59:30;;;;;;;12.32;10.48;;;;;;;3.54;100.00;96611.28;10371768;28;20202;-57
2022/03/31 13:04:34;;;;;;;11.15;9.85;;;;;;;3.39;100.00;96614.56;10370573;28;20082;-55
2022/03/31 13:09:40;;;;;;;11.40;10.20;;;;;;;3.33;100.00;96606.38;10371454;28;20080;-60
2022/03/31 13:14:45;;;;;;;12.32;10.63;;;;;;;3.34;100.00;96602.72;10370025;28;20498;-55
2022/03/31 13:19:51;;;;;;;12.68;11.38;;;;;;;3.31;100.00;96611.88;10371372;28;20037;-58
2022/03/31 13:24:57;;;;;;;12.30;10.63;;;;;;;3.28;100.00;96606.03;10369835;28;20057;-54
2022/03/31 13:30:01;;;;;;;12.07;10.77;;;;;;;3.25;100.00;96607.19;10375587;28;20434;-60
2022/03/31 13:35:06;;;;;;;11.57;9.48;;;;;;;3.16;100.00;96600.16;10387406;28;20190;-60
2022/03/31 13:40:14;;;;;;;11.60;9.57;;;;;;;3.14;100.00;96610.97;10369906;28;20410;-57
2022/03/31 13:45:17;;;;;;;11.75;10.35;;;;;;;3.13;100.00;96601.31;10372524;28;20058;-60
2022/03/31 13:50:21;;;;;;;11.88;9.98;;;;;;;3.06;100.00;96603.78;10384115;28;20081;-58
2022/03/31 13:55:27;;;;;;;11.88;9.98;;;;;;;3.10;100.00;96604.28;10392495;28;20105;-57
2022/03/31 14:05:55;;;;;;;12.10;10.90;;;;;;;3.03;100.00;96595.28;10365716;28;20537;-59
2022/03/31 14:11:00;;;;;;;12.43;9.50;;;;;;;3.00;100.00;96592.94;10328895;28;20495;-58
2022/03/31 14:16:06;;;;;;;11.90;10.50;;;;;;;3.05;100.00;96598.63;10315756;28;20125;-59
2022/03/31 14:21:10;;;;;;;11.50;10.35;;;;;;;3.05;100.00;96601.28;10317985;28;20108;-58
2022/03/31 14:26:17;;;;;;;11.07;10.00;;;;;;;3.04;100.00;96596.97;10313935;28;20474;-58
2022/03/31 14:31:23;;;;;;;11.23;10.13;;;;;;;3.00;100.00;96592.94;10318149;28;20054;-59
2022/03/31 14:36:43;;;;;;;10.57;9.55;;;;;;;2.93;100.00;96587.41;10316819;28;20045;-56
2022/03/31 14:41:50;;;;;;;11.20;10.13;;;;;;;2.88;100.00;96574.59;10314963;28;20057;-56
2022/03/31 14:46:53;;;;;;;12.25;11.05;;;;;;;2.84;100.00;96588.38;10317442;28;20042;-62
2022/03/31 14:52:01;;;;;;;13.30;11.90;;;;;;;2.77;100.00;96583.66;10315607;28;20505;-62
2022/03/31 14:57:07;;;;;;;13.10;11.90;;;;;;;2.73;100.00;96574.34;10318114;28;20077;-64
2022/03/31 15:02:13;;;;;;;11.63;10.55;;;;;;;2.66;100.00;96588.44;10334517;28;20058;-63
2022/03/31 15:07:18;;;;;;;11.52;10.43;;;;;;;2.61;100.00;96579.09;10354475;28;20038;-65
2022/03/31 15:17:43;;;;;;;10.88;9.88;;;;;;;2.52;100.00;96579.22;10350778;28;20046;-62
2022/03/31 15:22:48;;;;;;;11.63;10.45;;;;;;;2.46;100.00;96596.63;10356981;28;20074;-62
2022/03/31 15:27:53;;;;;;;10.88;9.85;;;;;;;2.33;100.00;96586.38;10356076;28;20092;-61
2022/03/31 15:32:56;;;;;;;11.00;10.00;;;;;;;2.19;100.00;96579.81;10356280;28;20179;-61
2022/03/31 15:37:59;;;;;;;11.30;10.20;;;;;;;2.11;100.00;96587.72;10353844;28;20042;-62
2022/03/31 15:43:06;;;;;;;11.23;10.13;;;;;;;2.05;100.00;96599.78;10355721;28;20046;-59
2022/03/31 15:48:09;;;;;;;10.60;9.63;;;;;;;1.98;100.00;96598.72;10353661;28;20139;-66
2022/03/31 15:53:14;;;;;;;10.50;9.50;;;;;;;1.86;100.00;96595.47;10337928;28;20064;-66
2022/03/31 15:58:19;;;;;;;10.63;9.63;;;;;;;1.80;100.00;96606.69;10353524;28;20057;-63
2022/03/31 16:03:22;;;;;;;10.07;9.18;;;;;;;1.74;100.00;96610.78;10352791;28;20507;-59
2022/03/31 16:08:25;;;;;;;9.77;8.88;;;;;;;1.64;100.00;96617.97;10354213;28;20050;-59
2022/03/31 16:13:30;;;;;;;9.82;8.82;;;;;;;1.49;100.00;96615.00;10355121;28;20052;-59
2022/03/31 16:18:33;;;;;;;10.20;9.23;;;;;;;1.38;100.00;96613.38;10353365;28;20052;-59
2022/03/31 16:23:44;;;;;;;10.80;9.23;;;;;;;1.32;100.00;96612.16;10352287;28;20562;-57
2022/03/31 16:28:52;;;;;;;10.60;9.60;;;;;;;1.26;100.00;96625.16;10353472;28;20053;-61
2022/03/31 16:33:56;;;;;;;10.50;9.50;;;;;;;1.19;100.00;96622.25;10353808;28;20476;-60
2022/03/31 16:39:00;;;;;;;11.82;10.63;;;;;;;1.14;100.00;96624.53;10353490;28;20147;-61
2022/03/31 16:44:05;;;;;;;13.02;11.68;;;;;;;1.12;100.00;96623.84;10354610;28;20045;-62
2022/03/31 16:49:08;;;;;;;14.55;13.05;;;;;;;1.08;100.00;96633.91;10354586;28;20515;-55
2022/03/31 16:54:15;;;;;;;14.88;13.25;;;;;;;1.03;100.00;96628.19;10334301;28;20046;-58
2022/03/31 16:59:21;;;;;;;16.58;14.93;;;;;;;1.04;100.00;96638.69;10353630;28;20050;-55
2022/03/31 17:11:19;;;;;;;14.25;12.85;;;;;;;0.95;100.00;96644.81;10350297;28;20042;-61
2022/03/31 17:16:23;;;;;;;15.07;13.57;;;;;;;0.94;100.00;96643.19;10354900;28;20124;-63
2022/03/31 17:21:26;;;;;;;16.25;14.65;;;;;;;0.93;100.00;96646.81;10357273;28;20121;-57
2022/03/31 17:26:29;;;;;;;15.48;13.88;;;;;;;0.89;100.00;96643.59;10356571;28;20417;-56
2022/03/31 17:31:35;;;;;;;16.67;14.02;;;;;;;0.90;100.00;96647.09;10359607;28;20640;-57
2022/03/31 17:36:38;;;;;;;15.98;14.38;;;;;;;0.90;100.00;96642.59;10358752;28;20100;-53
2022/03/31 17:41:41;;;;;;;15.68;14.07;;;;;;;0.88;100.00;96644.56;10357386;28;20052;-56
2022/03/31 17:46:46;;;;;;;15.55;13.95;;;;;;;0.88;100.00;96649.03;10362647;28;20065;-60
2022/03/31 17:51:49;;;;;;;17.85;15.25;;;;;;;0.89;100.00;96651.53;10359710;28;20293;-57
2022/03/31 17:56:54;;;;;;;17.65;15.80;;;;;;;0.94;100.00;96658.25;10359924;28;20538;-58
2022/03/31 18:01:59;;;;;;;18.83;16.92;;;;;;;0.95;100.00;96663.38;10342540;28;20494;-55
2022/03/31 18:07:03;;;;;;;21.00;18.90;;;;;;;0.97;100.00;96671.22;10361903;28;20053;-58
2022/03/31 18:12:07;;;;;;;17.92;16.13;;;;;;;0.93;100.00;96662.72;10358535;28;20069;-56
2022/03/31 18:18:07;;;;;;;18.10;16.20;;;;;;;0.90;100.00;96669.13;10362360;28;20053;-57
2022/03/31 18:23:12;;;;;;;18.65;16.70;;;;;;;0.88;100.00;96659.66;10359097;28;20569;-62
2022/03/31 18:28:16;;;;;;;20.45;18.30;;;;;;;0.90;100.00;96671.78;10354007;28;20045;-59
2022/03/31 18:38:52;;;;;;;20.27;18.17;;;;;;;0.90;100.00;96673.59;10329626;28;20053;-56
2022/03/31 18:43:57;;;;;;;20.48;18.33;;;;;;;0.92;100.00;96679.59;10361697;28;20052;-58
2022/03/31 18:49:05;;;;;;;21.50;19.30;;;;;;;0.94;100.00;96679.44;10361287;28;20491;-58
2022/03/31 18:54:14;;;;;;;20.63;18.55;;;;;;;0.94;100.00;96684.75;10358879;28;20100;-56
2022/03/31 18:59:18;;;;;;;22.75;20.33;;;;;;;0.94;100.00;96684.75;10356646;28;20538;-53
2022/03/31 19:04:22;;;;;;;22.75;20.42;;;;;;;0.96;100.00;96686.28;10341686;28;20056;-57
2022/03/31 19:09:34;;;;;;;22.42;20.13;;;;;;;0.97;100.00;96693.25;10359761;28;20056;-54
2022/03/31 19:14:39;;;;;;;22.45;20.15;;;;;;;0.95;100.00;96681.94;10344714;28;20050;-60
2022/03/31 19:20:01;;;;;;;20.67;18.67;;;;;;;0.96;100.00;96693.41;10362129;28;20049;-61
2022/03/31 19:25:09;;;;;;;20.02;18.08;;;;;;;0.95;100.00;96691.72;10346962;28;20073;-58
2022/03/31 19:30:14;;;;;;;19.45;17.52;;;;;;;0.90;100.00;96690.34;10358754;28;20055;-59
2022/03/31 19:35:17;;;;;;;18.60;16.80;;;;;;;0.87;100.00;96695.94;10358034;28;20038;-58
2022/03/31 19:40:22;;;;;;;18.20;16.30;;;;;;;0.87;100.00;96701.25;10361820;28;20068;-57
2022/03/31 19:45:25;;;;;;;18.58;16.88;;;;;;;0.85;100.00;96703.19;10358495;28;20130;-52
2022/03/31 19:50:30;;;;;;;17.52;15.82;;;;;;;0.84;100.00;96692.72;10355503;28;20045;-55
2022/03/31 19:55:34;;;;;;;16.90;15.40;;;;;;;0.86;100.00;96694.28;10359245;28;20033;-55
2022/03/31 20:00:37;;;;;;;15.75;14.32;;;;;;;0.86;100.00;96693.41;10358938;28;20056;-57
2022/03/31 20:05:41;;;;;;;16.42;14.93;;;;;;;0.88;100.00;96697.59;10354559;28;20104;-56
2022/03/31 20:10:53;;;;;;;16.70;15.10;;;;;;;0.89;100.00;96696.63;10359750;28;20486;-51
2022/03/31 20:15:56;;;;;;;17.42;15.73;;;;;;;0.89;100.00;96698.44;10358813;28;20443;-57
2022/03/31 20:21:00;;;;;;;16.80;15.30;;;;;;;0.90;100.00;96702.75;10359327;28;20041;-58
2022/03/31 20:26:05;;;;;;;17.05;15.38;;;;;;;0.93;100.00;96699.84;10360668;28;20072;-54
2022/03/31 20:31:33;;;;;;;17.17;15.57;;;;;;;0.93;100.00;96697.19;10364769;28;20052;-59
2022/03/31 20:36:36;;;;;;;16.88;15.10;;;;;;;0.90;100.00;96694.81;10361030;28;20530;-54
2022/03/31 20:41:43;;;;;;;17.13;15.52;;;;;;;0.89;100.00;96704.56;10359348;28;20046;-58
2022/03/31 20:46:49;;;;;;;15.65;14.18;;;;;;;0.89;100.00;96693.97;10373527;28;20057;-59
2022/03/31 20:51:53;;;;;;;15.73;14.20;;;;;;;0.90;100.00;96700.13;10405374;28;20053;-58
2022/03/31 20:56:58;;;;;;;16.08;13.77;;;;;;;0.89;100.00;96703.75;10390771;28;20057;-57
2022/03/31 21:02:02;;;;;;;15.18;13.68;;;;;;;0.90;100.00;96705.41;10335620;28;20065;-59
2022/03/31 21:07:07;;;;;;;17.00;15.30;;;;;;;0.92;100.00;96704.28;10352570;28;20457;-56
2022/03/31 21:12:16;;;;;;;16.10;14.50;;;;;;;0.96;100.00;96709.31;10349373;28;20042;-57
2022/03/31 21:17:20;;;;;;;16.73;15.02;;;;;;;0.99;100.00;96706.38;10355790;28;20038;-60
2022/03/31 21:22:23;;;;;;;19.08;15.57;;;;;;;1.05;100.00;96701.34;10359368;28;20392;-61
2022/03/31 21:27:28;;;;;;;16.65;15.13;;;;;;;1.05;100.00;96687.22;10343858;28;20042;-60
2022/03/31 21:32:31;;;;;;;17.60;15.95;;;;;;;1.09;100.00;96688.63;10359714;28;20100;-59
2022/03/31 21:37:34;;;;;;;16.63;14.98;;;;;;;1.12;100.00;96683.00;10362041;28;20044;-60
2022/03/31 21:42:39;;;;;;;17.58;15.90;;;;;;;1.15;100.00;96695.16;10340358;28;20133;-60
2022/03/31 21:47:45;;;;;;;17.23;15.55;;;;;;;1.17;100.00;96687.91;10343374;28;20557;-60
2022/03/31 21:52:48;;;;;;;15.70;14.15;;;;;;;1.16;100.00;96684.41;10359568;28;20159;-59
2022/03/31 21:57:53;;;;;;;15.70;14.10;;;;;;;1.17;100.00;96686.06;10358833;28;20116;-58
2022/03/31 22:02:57;;;;;;;15.32;13.88;;;;;;;1.19;100.00;96684.13;10318295;28;20463;-58
2022/03/31 22:11:33;;;;;;;16.25;14.43;;;;;;;1.22;100.00;96682.97;10301278;28;20065;-60
2022/03/31 22:13:28;;;;;;;17.33;14.82;;;;;;;1.24;100.00;96678.38;10297704;28;20522;-59
2022/03/31 22:18:32;;;;;;;17.13;15.10;;;;;;;1.23;100.00;96679.34;10300491;28;20173;-59
2022/03/31 22:23:35;;;;;;;15.70;14.05;;;;;;;1.28;100.00;96684.22;10317077;28;20443;-58
2022/03/31 22:28:40;;;;;;;15.70;14.10;;;;;;;1.28;100.00;96669.16;10298974;28;20245;-59
2022/03/31 22:33:44;;;;;;;16.42;14.05;;;;;;;1.28;100.00;96685.06;10318491;28;20616;-56
2022/03/31 22:38:48;;;;;;;14.05;12.63;;;;;;;1.28;100.00;96681.56;10318206;28;20097;-54
2022/03/31 22:43:53;;;;;;;14.05;12.68;;;;;;;1.29;100.00;96684.09;10318435;28;20034;-57
2022/03/31 22:49:02;;;;;;;13.50;12.10;;;;;;;1.28;100.00;96665.66;10314531;28;20062;-58
2022/03/31 22:54:06;;;;;;;12.13;10.93;;;;;;;1.27;100.00;96680.75;10298707;28;20137;-58
2022/03/31 22:59:11;;;;;;;11.88;10.68;;;;;;;1.25;100.00;96673.88;10326894;28;20116;-59
2022/03/31 23:04:15;;;;;;;11.27;10.00;;;;;;;1.25;100.00;96671.22;10357646;28;20525;-60
2022/03/31 23:09:18;;;;;;;12.90;9.88;;;;;;;1.23;100.00;96663.44;10357511;28;20041;-58
2022/03/31 23:14:22;;;;;;;10.52;9.40;;;;;;;1.22;100.00;96654.66;10357005;28;20573;-59
2022/03/31 23:19:25;;;;;;;11.32;9.02;;;;;;;1.20;100.00;96659.25;10354348;28;20050;-57
2022/03/31 23:24:29;;;;;;;12.40;9.48;;;;;;;1.18;100.00;96655.91;10357541;28;20298;-59
2022/03/31 23:29:35;;;;;;;11.68;8.73;;;;;;;1.15;100.00;96656.19;10337962;28;20210;-59
2022/03/31 23:34:38;;;;;;;14.27;8.85;;;;;;;1.15;100.00;96650.91;10354922;28;20068;-60
2022/03/31 23:39:41;;;;;;;10.27;8.93;;;;;;;1.15;100.00;96664.16;10357744;28;20069;-61
2022/03/31 23:44:48;;;;;;;10.45;9.38;;;;;;;1.15;100.00;96661.50;10358158;28;20046;-60